map of MHE home
MHE - Airport
Location
City:  Mitchell, South Dakota, United States
Name:Mitchell Municipal Airport
ICAO:KMHE
IATA:MHE
FAA LID:MHE

Details
Type:Airport (Airfield)
Use:Public/Civil
Latitude:4346'29"N (43.774833)
Longitude:9802'19"W (-98.038610)
Datum:WGS 1984
Elevation:1304 ft (397 m)
Variation:3.97E (WMM2015v2 magnetic declination)
-0.07 annual change
Runways:2
Longest:6700 × 100 ft (2042 × 30.5 m), paved

Time
Time Zone:UTC-6 (DST-5)
Local Time:

Weather
METAR:KMHE 041353Z AUTO 32022G29KT 10SM CLR M19/M24 A3009 RMK AO2 PK WND 33030/1338 SLP221 T11941244

Related Locations
Nearby:
Farthest:YAUG: 10555 mi / 16987 km
Augusta [Augusta Airport], WA, AU

Find:

   beyond  
but within

Other Information
Maps:
NOTAMs:
Links:
Sources:

  
  • flag of United States
  • flag of South Dakota
  

Sectional Chart

Flight Planning
at skyvector.com

Satellite Image

Google Maps Satellite view

 

Copyright © 2004-2019 Karl L. Swartz. All rights reserved.
The Great Circle Mapper name and logo are trademarks of the Great Circle Mapper.
All other trademarks mentioned herein belong to their respective owners.
Please see credits for attibutions and further copyright information.

  Follow gcmap on Facebook Follow gcmap on Twitter GCmap on LinkedIn

hCard Microformat

Geo Microformat